Time;durP1;ratioP1;P1;durP2;ratioP2;P2;SDS_P1;SDS_P2;PMS_P1;PMS_P2;Temp;Humidity;BMP_temperature;BMP_pressure;BME280_temperature;BME280_humidity;BME280_pressure;Samples;Min_cycle;Max_cycle;Signal;HPM_P1;HPM_P2
2021/09/10 00:01:58;;;;;;;13.07;8.13;;;;;;;20.37;65.12;99952.41;5053227;28;20021;-48
2021/09/10 00:04:24;;;;;;;9.90;7.93;;;;;;;20.38;65.43;99951.34;5053291;28;20440;-49
2021/09/10 00:06:50;;;;;;;12.57;8.15;;;;;;;20.19;65.61;99950.97;5052852;28;20029;-48
2021/09/10 00:09:18;;;;;;;10.23;8.00;;;;;;;20.05;65.97;99937.94;5052651;28;20730;-49
2021/09/10 00:11:44;;;;;;;11.15;8.10;;;;;;;20.26;65.68;99949.66;5053149;28;20079;-52
2021/09/10 00:14:10;;;;;;;11.68;7.72;;;;;;;20.18;65.89;99949.34;5052719;28;20412;-49
2021/09/10 00:16:35;;;;;;;13.52;8.60;;;;;;;20.04;65.82;99949.78;5052949;28;20198;-49
2021/09/10 00:19:00;;;;;;;13.98;8.25;;;;;;;20.04;65.94;99949.78;5053039;28;20028;-51
2021/09/10 00:21:26;;;;;;;11.25;8.35;;;;;;;20.08;66.17;99945.50;5052388;28;20013;-50
2021/09/10 00:23:51;;;;;;;12.10;8.68;;;;;;;20.04;66.44;99955.19;5052791;28;20029;-52
2021/09/10 00:26:17;;;;;;;11.85;7.93;;;;;;;20.14;65.91;99948.22;5052912;28;20021;-48
2021/09/10 00:28:42;;;;;;;8.45;7.53;;;;;;;20.22;65.82;99945.84;5052966;28;20024;-49
2021/09/10 00:31:08;;;;;;;8.93;7.28;;;;;;;20.32;65.31;99955.91;5053193;28;20029;-49
2021/09/10 00:33:34;;;;;;;8.65;6.85;;;;;;;20.36;64.64;99956.19;5052564;28;20057;-51
2021/09/10 00:36:00;;;;;;;9.27;6.55;;;;;;;20.37;64.21;99953.22;5052718;28;20453;-50
2021/09/10 00:38:25;;;;;;;8.75;6.70;;;;;;;20.30;64.23;99950.75;5052814;28;20032;-52
2021/09/10 00:40:51;;;;;;;7.57;6.10;;;;;;;20.21;64.49;99951.53;5052662;28;20021;-48
2021/09/10 00:43:16;;;;;;;7.50;5.45;;;;;;;20.16;64.61;99949.59;5052352;28;20028;-50
2021/09/10 00:45:43;;;;;;;6.22;4.95;;;;;;;20.27;64.22;99955.88;5052473;28;20086;-47
2021/09/10 00:48:08;;;;;;;10.27;4.93;;;;;;;20.36;63.54;99948.09;5052546;28;20434;-50
2021/09/10 00:50:34;;;;;;;6.18;4.80;;;;;;;20.43;63.21;99946.75;5034371;28;20053;-50
2021/09/10 00:53:00;;;;;;;7.28;5.30;;;;;;;20.31;63.53;99957.81;5052545;28;20044;-48
2021/09/10 00:55:26;;;;;;;8.95;5.30;;;;;;;20.16;64.24;99955.00;5052223;28;20024;-49
2021/09/10 00:57:51;;;;;;;6.35;5.07;;;;;;;20.13;64.11;99950.13;5052221;28;20036;-50
2021/09/10 01:00:17;;;;;;;7.43;4.93;;;;;;;20.13;64.09;99949.31;5052100;28;20075;-48
2021/09/10 01:02:42;;;;;;;7.20;5.18;;;;;;;20.21;64.03;99946.91;5052280;28;20056;-48
2021/09/10 01:05:08;;;;;;;8.20;5.25;;;;;;;20.25;64.20;99948.00;5050581;28;20020;-47
2021/09/10 01:07:34;;;;;;;6.05;4.43;;;;;;;20.23;64.23;99944.75;5052300;28;20645;-47
2021/09/10 01:09:59;;;;;;;8.20;5.35;;;;;;;20.26;63.45;99940.75;5050659;28;20099;-48
2021/09/10 01:12:25;;;;;;;7.28;5.13;;;;;;;20.33;63.33;99933.19;5050982;28;20033;-48
2021/09/10 01:14:50;;;;;;;8.45;5.75;;;;;;;20.20;63.93;99929.09;5052100;28;20025;-48
2021/09/10 01:17:16;;;;;;;8.02;5.72;;;;;;;20.08;64.30;99926.59;5052048;28;20023;-48
2021/09/10 01:19:41;;;;;;;7.88;5.95;;;;;;;20.10;63.49;99920.94;5052065;28;20021;-48
2021/09/10 01:22:07;;;;;;;10.50;6.53;;;;;;;19.62;64.30;99928.97;5051656;28;20425;-48
2021/09/10 01:24:38;;;;;;;9.98;6.60;;;;;;;19.71;64.29;99921.22;5051969;28;20048;-51
2021/09/10 01:27:04;;;;;;;9.40;6.53;;;;;;;19.80;64.11;99919.69;5051687;28;20047;-48
2021/09/10 01:29:31;;;;;;;12.57;7.32;;;;;;;19.79;63.46;99920.75;5051575;28;20029;-48
2021/09/10 01:31:56;;;;;;;11.27;6.95;;;;;;;19.84;63.75;99926.19;5051395;28;20017;-52
2021/09/10 01:34:22;;;;;;;15.82;7.80;;;;;;;19.88;63.69;99929.19;5051687;28;20079;-48
2021/09/10 01:36:47;;;;;;;13.95;8.25;;;;;;;19.85;63.32;99925.09;5052045;28;20036;-48
2021/09/10 01:39:13;;;;;;;12.02;8.48;;;;;;;19.89;63.44;99928.09;5052416;28;20063;-48
2021/09/10 01:41:38;;;;;;;11.15;7.88;;;;;;;19.98;62.91;99931.94;5051949;28;20021;-51
2021/09/10 01:44:04;;;;;;;16.00;8.18;;;;;;;19.96;63.36;99933.28;5052489;28;20402;-48
2021/09/10 01:46:29;;;;;;;18.95;8.85;;;;;;;20.03;62.84;99931.97;5052051;28;20025;-48
2021/09/10 01:48:55;;;;;;;16.13;9.27;;;;;;;20.08;62.74;99933.88;5051833;28;20448;-47
2021/09/10 01:51:33;;;;;;;15.90;9.85;;;;;;;20.04;62.94;99933.59;5052272;28;20055;-48
2021/09/10 01:53:59;;;;;;;15.95;9.95;;;;;;;19.97;63.60;99932.19;5052168;28;20397;-49
2021/09/10 01:56:24;;;;;;;14.77;10.05;;;;;;;19.94;63.08;99948.94;5051824;28;20067;-51
2021/09/10 01:58:50;;;;;;;17.17;9.05;;;;;;;19.89;63.31;99944.31;5051953;28;20449;-51
2021/09/10 02:01:26;;;;;;;15.68;9.50;;;;;;;19.84;63.28;99950.50;5051537;28;20512;-48
2021/09/10 02:03:51;;;;;;;14.48;9.48;;;;;;;19.71;63.87;99959.00;5051404;28;20049;-48
2021/09/10 02:06:17;;;;;;;18.30;10.10;;;;;;;19.70;63.73;99958.19;5051396;28;20056;-49
2021/09/10 02:08:42;;;;;;;14.95;9.15;;;;;;;19.80;63.79;99957.50;5051467;28;20679;-48
2021/09/10 02:11:08;;;;;;;17.50;9.23;;;;;;;19.81;64.18;99956.41;5051638;28;20048;-48
2021/09/10 02:13:33;;;;;;;17.20;9.68;;;;;;;19.89;63.60;99942.41;5051529;28;20068;-48
2021/09/10 02:15:59;;;;;;;14.35;9.88;;;;;;;19.99;63.30;99949.78;5051424;28;20047;-48
2021/09/10 02:18:24;;;;;;;14.75;9.80;;;;;;;20.10;63.21;99946.06;5051471;28;20024;-49
2021/09/10 02:20:49;;;;;;;17.13;9.35;;;;;;;20.08;63.46;99950.09;5051365;28;20414;-52
2021/09/10 02:23:15;;;;;;;15.68;9.55;;;;;;;20.05;63.24;99945.22;5050993;28;20036;-49
2021/09/10 02:25:41;;;;;;;13.55;9.10;;;;;;;20.10;63.48;99943.38;5051300;28;20021;-51
2021/09/10 02:28:06;;;;;;;15.07;9.60;;;;;;;19.96;63.91;99941.38;5051305;28;20020;-48
2021/09/10 02:30:34;;;;;;;16.98;9.57;;;;;;;19.98;63.78;99939.22;5051230;28;20032;-51
2021/09/10 02:32:59;;;;;;;16.40;9.77;;;;;;;19.91;64.16;99942.16;5051283;28;20021;-51
2021/09/10 02:35:25;;;;;;;13.90;9.45;;;;;;;19.98;63.80;99934.63;5051180;28;20025;-49
2021/09/10 02:37:50;;;;;;;15.52;9.13;;;;;;;20.11;63.71;99941.47;5051052;28;20025;-51
2021/09/10 02:40:16;;;;;;;13.73;9.48;;;;;;;20.03;63.94;99931.97;5050958;28;20025;-48
2021/09/10 02:42:41;;;;;;;14.40;9.00;;;;;;;19.89;64.36;99931.59;5051222;28;20028;-47
2021/09/10 02:45:07;;;;;;;13.77;8.45;;;;;;;19.90;63.98;99933.25;5050903;28;20503;-48
2021/09/10 02:47:33;;;;;;;12.65;8.82;;;;;;;19.98;63.92;99925.72;5050994;28;20020;-50
2021/09/10 02:49:58;;;;;;;13.73;8.40;;;;;;;20.04;63.68;99932.78;5050784;28;20025;-53
2021/09/10 02:52:24;;;;;;;10.63;8.25;;;;;;;20.07;63.91;99927.69;5050560;28;20028;-49
2021/09/10 02:54:49;;;;;;;13.70;9.10;;;;;;;19.87;64.04;99933.75;5050608;28;20519;-49
2021/09/10 02:57:14;;;;;;;15.55;9.27;;;;;;;19.74;64.22;99936.91;5050811;28;20405;-50
2021/09/10 02:59:40;;;;;;;14.50;9.10;;;;;;;19.64;64.72;99934.13;5050834;28;20020;-50
2021/09/10 03:02:05;;;;;;;13.20;9.20;;;;;;;19.64;64.63;99937.63;5050640;28;20021;-50
2021/09/10 03:04:31;;;;;;;14.57;9.50;;;;;;;19.56;65.14;99940.00;5050707;28;20021;-51
2021/09/10 03:06:56;;;;;;;14.55;8.88;;;;;;;19.65;64.87;99941.97;5050729;28;20025;-50
2021/09/10 03:09:22;;;;;;;13.63;9.10;;;;;;;19.77;64.91;99941.78;5050611;28;20048;-48
2021/09/10 03:11:47;;;;;;;12.77;8.52;;;;;;;19.87;64.34;99941.06;5050558;28;20079;-50
2021/09/10 03:14:12;;;;;;;13.25;8.70;;;;;;;19.73;64.83;99946.09;5050285;28;20025;-51
2021/09/10 03:16:38;;;;;;;13.57;8.68;;;;;;;19.86;64.31;99942.94;5050145;28;20032;-49
2021/09/10 03:19:03;;;;;;;15.10;8.90;;;;;;;19.94;63.81;99947.03;5050465;28;20024;-51
2021/09/10 03:21:29;;;;;;;14.32;9.32;;;;;;;19.96;63.91;99946.78;5050083;28;20035;-47
2021/09/10 03:23:54;;;;;;;13.80;8.60;;;;;;;19.88;64.25;99948.09;5050180;28;20392;-48
2021/09/10 03:26:20;;;;;;;12.95;8.82;;;;;;;19.89;64.12;99952.41;5048639;28;20041;-48
2021/09/10 03:28:45;;;;;;;13.32;8.25;;;;;;;19.93;63.81;99953.50;5050113;28;20036;-52
2021/09/10 03:31:11;;;;;;;13.40;8.50;;;;;;;19.76;64.57;99944.75;5050382;28;20025;-50
2021/09/10 03:33:36;;;;;;;17.23;8.75;;;;;;;19.81;64.46;99950.19;5049463;28;20021;-51
2021/09/10 03:36:02;;;;;;;15.32;8.32;;;;;;;19.85;64.00;99954.00;5049392;28;20036;-51
2021/09/10 03:38:27;;;;;;;15.20;8.95;;;;;;;19.92;63.61;99950.00;5050170;28;20035;-51
2021/09/10 03:40:53;;;;;;;12.13;8.73;;;;;;;19.84;64.05;99950.50;5050381;28;20021;-49
2021/09/10 03:43:18;;;;;;;17.60;8.65;;;;;;;19.82;64.19;99949.94;5050070;28;20040;-49
2021/09/10 03:45:43;;;;;;;18.92;12.25;;;;;;;19.78;64.34;99953.41;5050451;28;20029;-50
2021/09/10 03:48:09;;;;;;;12.70;9.68;;;;;;;19.73;64.33;99955.00;5049699;28;20409;-51
2021/09/10 03:50:34;;;;;;;11.90;8.30;;;;;;;19.78;64.26;99953.41;5050089;28;20029;-48
2021/09/10 03:53:00;;;;;;;13.38;8.75;;;;;;;19.75;63.99;99946.66;5050077;28;20087;-48
2021/09/10 03:55:25;;;;;;;12.80;9.02;;;;;;;19.77;63.72;99943.69;5050153;28;20017;-48
2021/09/10 03:57:51;;;;;;;14.05;8.68;;;;;;;19.76;63.73;99948.25;5049790;28;20067;-51
2021/09/10 04:00:16;;;;;;;14.98;9.50;;;;;;;19.75;64.07;99943.94;5050155;28;20072;-49
2021/09/10 04:02:43;;;;;;;11.93;9.25;;;;;;;19.57;64.66;99947.00;5049904;28;20056;-52
2021/09/10 04:05:09;;;;;;;14.25;9.45;;;;;;;19.58;64.60;99944.06;5049703;28;20080;-52
2021/09/10 04:07:34;;;;;;;13.13;9.13;;;;;;;19.54;64.63;99948.34;5049605;28;20017;-52
2021/09/10 04:10:00;;;;;;;15.43;9.05;;;;;;;19.49;64.48;99951.81;5049803;28;20095;-50
2021/09/10 04:12:25;;;;;;;14.60;9.18;;;;;;;19.34;65.25;99946.28;5049702;28;20026;-51
2021/09/10 04:14:51;;;;;;;13.45;9.10;;;;;;;19.30;65.85;99951.38;5049998;28;20361;-52
2021/09/10 04:17:16;;;;;;;16.98;9.45;;;;;;;19.41;65.06;99964.97;5049023;28;20025;-51
2021/09/10 04:19:41;;;;;;;17.45;10.32;;;;;;;19.28;65.50;99960.78;5049521;28;20436;-49
2021/09/10 04:22:07;;;;;;;19.92;9.98;;;;;;;19.45;65.02;99966.06;5049350;28;20028;-51
2021/09/10 04:24:32;;;;;;;14.50;9.65;;;;;;;19.57;65.22;99966.72;5048189;28;20111;-51
2021/09/10 04:26:58;;;;;;;19.75;9.98;;;;;;;19.67;64.61;99956.00;5049050;28;20037;-51
2021/09/10 04:29:23;;;;;;;15.52;9.98;;;;;;;19.76;64.46;99952.84;5048933;28;20376;-51
2021/09/10 04:31:49;;;;;;;15.60;9.88;;;;;;;19.79;64.48;99953.16;5049199;28;20029;-51
2021/09/10 04:34:14;;;;;;;15.45;9.30;;;;;;;19.73;64.83;99955.00;5049034;28;20418;-52
2021/09/10 04:36:40;;;;;;;14.65;8.68;;;;;;;19.79;64.75;99960.44;5048563;28;20385;-50
2021/09/10 04:39:05;;;;;;;12.55;8.45;;;;;;;19.87;65.07;99959.94;5046369;28;20021;-48
2021/09/10 04:41:31;;;;;;;10.63;7.40;;;;;;;20.30;63.64;99949.94;5032114;28;20075;-50
2021/09/10 04:43:57;;;;;;;10.55;7.40;;;;;;;20.70;62.89;99957.44;5029566;28;20390;-49
2021/09/10 04:46:23;;;;;;;11.80;7.10;;;;;;;20.66;62.44;99950.13;5029693;28;20035;-49
2021/09/10 04:48:48;;;;;;;9.10;6.53;;;;;;;20.79;61.95;99963.16;5051485;28;20025;-52
2021/09/10 04:51:13;;;;;;;12.20;7.18;;;;;;;21.05;61.57;99965.91;5052804;28;20036;-51
2021/09/10 04:53:39;;;;;;;13.25;7.93;;;;;;;21.26;60.02;99961.34;5052631;28;20025;-49
2021/09/10 04:56:05;;;;;;;12.43;7.47;;;;;;;21.55;60.02;99960.84;5052191;28;20070;-49
2021/09/10 04:58:31;;;;;;;10.20;6.75;;;;;;;21.80;59.34;99966.25;5052237;28;20120;-48
2021/09/10 05:00:56;;;;;;;10.52;6.28;;;;;;;22.11;58.76;99968.91;5052485;28;20535;-52
2021/09/10 05:03:22;;;;;;;11.02;6.35;;;;;;;22.44;57.73;99969.38;5051923;28;20097;-51
2021/09/10 05:05:47;;;;;;;15.27;6.45;;;;;;;22.68;57.62;99964.16;5051911;28;20025;-50
2021/09/10 05:08:13;;;;;;;11.52;6.28;;;;;;;23.07;55.53;99960.69;5052119;28;20040;-49
2021/09/10 05:10:38;;;;;;;13.32;6.90;;;;;;;23.33;55.32;99955.91;5052225;28;20052;-51
2021/09/10 05:13:04;;;;;;;9.02;6.43;;;;;;;23.61;53.58;99958.94;5052027;28;20036;-48
2021/09/10 05:15:29;;;;;;;14.73;9.57;;;;;;;23.82;52.83;99943.31;5052036;28;20454;-51
2021/09/10 05:17:54;;;;;;;12.25;6.07;;;;;;;24.16;52.03;99959.53;5051818;28;20029;-51
2021/09/10 05:20:20;;;;;;;10.32;5.50;;;;;;;24.54;49.62;99953.38;5051914;28;20509;-50
2021/09/10 05:22:45;;;;;;;11.57;5.43;;;;;;;24.62;49.63;99951.94;5051683;28;20489;-49
2021/09/10 05:25:11;;;;;;;7.18;4.90;;;;;;;24.48;48.44;99949.88;5052177;28;20028;-47
2021/09/10 05:27:36;;;;;;;7.57;4.68;;;;;;;24.42;49.36;99951.06;5051925;28;20485;-51
2021/09/10 05:30:02;;;;;;;10.93;6.22;;;;;;;24.12;49.37;99944.06;5051848;28;20480;-49
2021/09/10 05:32:28;;;;;;;24.58;16.20;;;;;;;24.21;48.97;99950.50;5051578;28;20017;-48
2021/09/10 05:34:53;;;;;;;19.38;13.68;;;;;;;24.36;48.66;99944.06;5051477;28;20091;-48
2021/09/10 05:37:18;;;;;;;8.63;4.80;;;;;;;24.57;48.32;99948.19;5051268;28;20036;-52
2021/09/10 05:39:44;;;;;;;8.50;4.53;;;;;;;24.49;48.71;99950.72;5051150;28;20028;-49
2021/09/10 05:42:09;;;;;;;10.55;4.60;;;;;;;24.67;47.84;99955.38;5051180;28;20021;-50
2021/09/10 05:44:35;;;;;;;7.13;4.68;;;;;;;24.86;47.18;99955.41;5051496;28;20025;-49
2021/09/10 05:47:00;;;;;;;8.65;5.10;;;;;;;24.73;47.20;99953.41;5051276;28;20021;-49
2021/09/10 05:49:26;;;;;;;14.57;5.57;;;;;;;25.00;46.26;99950.06;5050927;28;20118;-49
2021/09/10 05:51:51;;;;;;;8.32;5.10;;;;;;;24.92;46.41;99954.25;5050894;28;20060;-50
2021/09/10 05:54:17;;;;;;;7.75;5.10;;;;;;;25.16;46.47;99950.63;5051181;28;20017;-48
2021/09/10 05:56:42;;;;;;;10.38;5.25;;;;;;;25.28;45.86;99952.94;5050649;28;20493;-52
2021/09/10 05:59:08;;;;;;;7.53;4.97;;;;;;;25.16;46.26;99934.28;5050880;28;20036;-49
2021/09/10 06:01:33;;;;;;;10.48;5.07;;;;;;;25.30;45.93;99958.88;5050962;28;20044;-49
2021/09/10 06:03:59;;;;;;;7.80;4.60;;;;;;;25.56;45.72;99956.56;5051044;28;20027;-48
2021/09/10 06:06:25;;;;;;;10.85;4.80;;;;;;;25.79;45.32;99962.97;5050904;28;20021;-48
2021/09/10 06:08:51;;;;;;;7.68;5.10;;;;;;;25.81;45.38;99957.22;5049750;28;20060;-48
2021/09/10 06:11:16;;;;;;;8.73;4.97;;;;;;;26.11;44.48;99964.06;5050695;28;20020;-48
2021/09/10 06:13:41;;;;;;;9.00;4.85;;;;;;;25.81;44.65;99966.22;5050117;28;20475;-48
2021/09/10 06:16:07;;;;;;;7.72;4.78;;;;;;;26.06;44.64;99967.69;5049192;28;20028;-48
2021/09/10 06:18:33;;;;;;;9.75;4.43;;;;;;;26.17;45.61;99965.59;5049303;28;20489;-50
2021/09/10 06:21:01;;;;;;;6.30;4.30;;;;;;;26.46;44.23;99967.19;5049425;28;20029;-51
2021/09/10 06:23:27;;;;;;;7.57;4.32;;;;;;;26.80;43.09;99966.78;5048591;28;20390;-52
2021/09/10 06:25:52;;;;;;;10.73;4.80;;;;;;;27.40;42.48;99968.44;5050115;28;20025;-49
2021/09/10 06:28:18;;;;;;;7.97;4.50;;;;;;;27.65;41.06;99966.19;5050019;28;20021;-51
2021/09/10 06:30:43;;;;;;;7.65;4.30;;;;;;;27.73;40.31;99965.44;5050576;28;20044;-47
2021/09/10 06:33:09;;;;;;;7.38;4.20;;;;;;;27.79;40.13;99968.84;5050255;28;20037;-48
2021/09/10 06:35:34;;;;;;;6.53;4.03;;;;;;;27.73;40.45;99965.44;5050690;28;20025;-47
2021/09/10 06:38:00;;;;;;;7.18;4.25;;;;;;;27.61;41.01;99967.94;5050107;28;20021;-49
2021/09/10 06:40:25;;;;;;;8.18;4.03;;;;;;;28.04;40.67;99970.91;5050381;28;20021;-49
2021/09/10 06:42:52;;;;;;;7.97;4.38;;;;;;;28.34;39.42;99967.66;5050737;28;20432;-51
2021/09/10 06:45:17;;;;;;;7.15;4.40;;;;;;;28.67;39.78;99973.56;5049746;28;20041;-48
2021/09/10 06:47:43;;;;;;;7.47;4.85;;;;;;;28.74;38.89;99965.69;5049966;28;20033;-51
2021/09/10 06:50:10;;;;;;;8.43;4.68;;;;;;;29.10;37.04;99972.00;5048576;28;20405;-48
2021/09/10 06:52:39;;;;;;;7.75;3.85;;;;;;;29.54;36.38;99961.84;5049696;28;20043;-49
2021/09/10 06:55:05;;;;;;;6.65;3.75;;;;;;;29.12;36.56;99961.53;5048585;28;20052;-48
2021/09/10 06:57:31;;;;;;;7.18;4.05;;;;;;;29.39;36.90;99968.63;5048435;28;20091;-48
2021/09/10 06:59:56;;;;;;;8.00;3.30;;;;;;;29.62;36.12;99966.50;5049701;28;20013;-50
2021/09/10 07:02:22;;;;;;;8.63;3.42;;;;;;;30.08;34.87;99962.16;5049685;28;20052;-50
2021/09/10 07:04:47;;;;;;;6.30;3.65;;;;;;;29.57;35.62;99970.22;5049790;28;20078;-47
2021/09/10 07:07:13;;;;;;;5.30;3.38;;;;;;;29.76;35.58;99969.88;5050380;28;20397;-49
2021/09/10 07:09:39;;;;;;;5.90;3.25;;;;;;;30.32;33.67;99975.34;5048846;28;20484;-49
2021/09/10 07:12:07;;;;;;;6.20;3.20;;;;;;;30.64;33.29;99973.06;5049481;28;20033;-48
2021/09/10 07:14:32;;;;;;;6.50;3.00;;;;;;;30.99;33.13;99970.09;5049697;28;20028;-48
2021/09/10 07:16:58;;;;;;;4.45;2.80;;;;;;;31.13;32.09;99951.41;5049682;28;20021;-50
2021/09/10 07:19:23;;;;;;;7.32;2.88;;;;;;;31.72;31.17;99969.59;5049815;28;20021;-51
2021/09/10 07:21:49;;;;;;;6.25;3.00;;;;;;;31.06;31.18;99964.88;5049299;28;20021;-47
2021/09/10 07:24:15;;;;;;;5.60;3.13;;;;;;;30.88;32.78;99971.59;5049206;28;20495;-48
2021/09/10 07:26:40;;;;;;;4.65;3.00;;;;;;;31.02;32.24;99966.69;5049672;28;20396;-48
2021/09/10 07:29:05;;;;;;;5.25;2.83;;;;;;;31.48;31.83;99973.09;5049767;28;20099;-51
2021/09/10 07:31:31;;;;;;;4.65;2.50;;;;;;;31.70;31.13;99969.16;5050013;28;20021;-49
2021/09/10 07:33:56;;;;;;;4.13;2.83;;;;;;;31.87;31.53;99968.16;5049445;28;20059;-50
2021/09/10 07:36:22;;;;;;;3.40;2.40;;;;;;;31.93;30.55;99958.53;5049151;28;20028;-49
2021/09/10 07:38:47;;;;;;;5.78;2.60;;;;;;;31.93;29.59;99963.22;5049592;28;20131;-48
2021/09/10 07:41:13;;;;;;;4.60;2.78;;;;;;;31.94;30.24;99962.88;5049030;28;20345;-48
2021/09/10 07:43:38;;;;;;;6.32;2.75;;;;;;;32.35;29.76;99965.81;5049221;28;20029;-50
2021/09/10 07:46:04;;;;;;;4.63;2.70;;;;;;;32.06;30.43;99956.63;5049386;28;20028;-51
2021/09/10 07:48:29;;;;;;;6.65;2.92;;;;;;;31.88;29.08;99952.44;5049334;28;20464;-51
2021/09/10 07:50:55;;;;;;;4.95;2.55;;;;;;;31.50;29.92;99959.00;5049645;28;20143;-49
2021/09/10 07:53:20;;;;;;;5.55;2.58;;;;;;;31.60;30.29;99961.31;5049029;28;20028;-49
2021/09/10 07:55:46;;;;;;;6.18;2.97;;;;;;;31.77;30.25;99958.38;5049699;28;20021;-48
2021/09/10 07:58:11;;;;;;;7.18;4.70;;;;;;;31.87;30.33;99956.31;5049439;28;20100;-47
2021/09/10 08:00:38;;;;;;;7.30;3.90;;;;;;;32.53;29.70;99953.38;5049182;28;20516;-49
2021/09/10 08:03:03;;;;;;;9.07;3.10;;;;;;;33.09;27.84;99960.97;5049031;28;20017;-48
2021/09/10 08:05:28;;;;;;;5.38;2.65;;;;;;;32.74;28.55;99955.22;5048915;28;20036;-48
2021/09/10 08:07:54;;;;;;;4.78;2.65;;;;;;;32.80;30.16;99961.28;5049146;28;20456;-48
2021/09/10 08:10:19;;;;;;;3.58;2.45;;;;;;;32.70;29.77;99959.81;5048943;28;20052;-47
2021/09/10 08:12:46;;;;;;;4.13;2.50;;;;;;;33.12;27.92;99962.25;5049236;28;20032;-49
2021/09/10 08:15:15;;;;;;;4.43;2.58;;;;;;;33.13;27.80;99966.63;5050098;28;20021;-51
2021/09/10 08:17:41;;;;;;;20.92;14.65;;;;;;;33.20;28.09;99960.50;5049651;28;20029;-48
2021/09/10 08:20:07;;;;;;;6.13;3.78;;;;;;;33.36;27.86;99952.25;5049543;28;20072;-50
2021/09/10 08:22:34;;;;;;;5.90;2.60;;;;;;;33.24;28.12;99964.97;5052577;28;20017;-51
2021/09/10 08:25:00;;;;;;;4.82;2.55;;;;;;;33.46;27.80;99947.03;5053238;28;20029;-49
2021/09/10 08:27:25;;;;;;;6.10;2.72;;;;;;;33.66;27.88;99949.94;5051747;28;20431;-50
2021/09/10 08:29:52;;;;;;;6.35;3.30;;;;;;;33.84;27.41;99951.19;5053403;28;20116;-50
2021/09/10 08:32:17;;;;;;;4.38;2.70;;;;;;;33.50;27.88;99947.94;5053062;28;20044;-48
2021/09/10 08:34:43;;;;;;;5.15;3.10;;;;;;;33.71;26.88;99944.16;5053419;28;20410;-49
2021/09/10 08:37:08;;;;;;;7.32;3.20;;;;;;;33.58;27.29;99943.41;5053108;28;20378;-51
2021/09/10 08:39:33;;;;;;;8.02;3.00;;;;;;;33.40;27.92;99944.91;5053027;28;20038;-48
2021/09/10 08:41:59;;;;;;;12.18;3.08;;;;;;;33.45;27.88;99944.63;5052679;28;20532;-48
2021/09/10 08:44:24;;;;;;;7.97;3.03;;;;;;;33.08;27.49;99951.09;5051262;28;20017;-50
2021/09/10 08:46:50;;;;;;;6.63;2.85;;;;;;;32.17;28.93;99947.91;5051533;28;20029;-37
2021/09/10 08:49:15;;;;;;;6.68;3.00;;;;;;;31.94;28.87;99940.84;5051678;28;20021;-37
2021/09/10 08:51:42;;;;;;;5.40;2.90;;;;;;;31.98;29.17;99940.97;5051636;28;20417;-37
2021/09/10 08:54:07;;;;;;;8.00;3.13;;;;;;;30.78;31.05;99943.38;5051167;28;20033;-38
2021/09/10 08:56:33;;;;;;;6.20;3.00;;;;;;;30.43;31.35;99942.03;5050693;28;20028;-38
2021/09/10 08:59:16;;;;;;;6.20;4.55;;;;;;;30.55;31.76;99928.38;5051055;28;20174;-38
2021/09/10 09:01:55;;;;;;;7.63;4.65;;;;;;;29.61;33.16;99930.03;5051926;28;20108;-37
2021/09/10 09:04:23;;;;;;;6.13;3.42;;;;;;;30.49;32.53;99935.22;5053060;28;20020;-38
2021/09/10 09:06:55;;;;;;;5.20;3.15;;;;;;;30.84;32.66;99934.97;5064511;28;20037;-38
2021/09/10 09:09:41;;;;;;;6.05;3.00;;;;;;;31.20;31.40;99930.81;5061903;28;20119;-38
2021/09/10 09:12:30;;;;;;;7.85;2.95;;;;;;;31.40;30.79;99927.22;5053686;28;20151;-38
2021/09/10 09:14:57;;;;;;;25.17;19.70;;;;;;;31.01;30.73;99923.84;5057658;28;20074;-38
2021/09/10 09:17:30;;;;;;;30.83;22.05;;;;;;;30.38;31.41;99930.09;5050042;28;20028;-38
2021/09/10 09:20:26;;;;;;;6.45;3.60;;;;;;;30.14;31.76;99914.22;5049380;28;20029;-37
2021/09/10 09:23:08;;;;;;;8.77;2.97;;;;;;;29.50;32.95;99915.06;5044437;28;20470;-38
2021/09/10 09:25:42;;;;;;;6.47;2.80;;;;;;;29.00;33.24;99918.34;5057643;28;20488;-37
2021/09/10 09:28:22;;;;;;;4.95;2.72;;;;;;;29.60;32.18;99909.22;5066802;28;20031;-37
2021/09/10 09:30:50;;;;;;;7.85;2.90;;;;;;;29.65;32.53;99911.00;5056560;28;20028;-38
2021/09/10 09:33:17;;;;;;;7.47;2.80;;;;;;;29.55;32.00;99912.16;5058930;28;20024;-37
2021/09/10 09:35:43;;;;;;;5.90;3.00;;;;;;;29.88;33.82;99906.13;5050339;28;20512;-38
2021/09/10 09:38:19;;;;;;;6.70;2.40;;;;;;;30.77;30.10;99913.53;5066769;28;20171;-37
2021/09/10 09:40:46;;;;;;;5.57;3.13;;;;;;;31.16;29.44;99914.19;5056295;28;20032;-38
2021/09/10 09:43:19;;;;;;;3.67;2.42;;;;;;;31.61;28.93;99904.38;5060653;28;20420;-38
2021/09/10 09:45:49;;;;;;;8.50;2.80;;;;;;;31.94;29.38;99901.53;5052482;28;20108;-38
2021/09/10 09:48:15;;;;;;;5.75;2.53;;;;;;;32.48;28.42;99900.47;5053064;28;20033;-37
2021/09/10 09:50:41;;;;;;;9.00;2.72;;;;;;;32.11;28.73;99889.53;5065272;28;20017;-37
2021/09/10 09:53:06;;;;;;;5.97;2.42;;;;;;;31.53;27.78;99890.41;5048358;28;20082;-37
2021/09/10 09:55:33;;;;;;;6.35;2.50;;;;;;;32.14;28.62;99886.91;5057916;28;20439;-38
2021/09/10 09:58:02;;;;;;;5.97;2.50;;;;;;;32.83;28.17;99883.44;5066042;28;20124;-38
2021/09/10 10:00:27;;;;;;;;;;;;;;;33.19;26.60;99882.50;5037836;28;20239;-37
2021/09/10 10:02:53;;;;;;;4.38;2.50;;;;;;;33.30;26.27;99880.84;5064836;28;19913;-38
2021/09/10 10:05:18;;;;;;;4.90;2.33;;;;;;;33.60;25.21;99869.38;5059410;28;20025;-37
2021/09/10 10:07:51;;;;;;;3.58;2.22;;;;;;;33.98;24.61;99880.94;5049941;28;20017;-37
2021/09/10 10:10:19;;;;;;;3.72;2.22;;;;;;;34.51;23.58;99873.09;5050874;28;20040;-38
2021/09/10 10:12:46;;;;;;;6.25;2.83;;;;;;;34.48;24.19;99871.06;5042646;28;20116;-42
2021/09/10 10:15:19;;;;;;;5.82;2.80;;;;;;;34.40;24.46;99872.06;5025205;28;20075;-38
2021/09/10 10:17:45;;;;;;;6.53;2.60;;;;;;;33.95;23.48;99876.13;5063101;28;20182;-38
2021/09/10 10:20:14;;;;;;;4.20;2.53;;;;;;;33.82;23.71;99864.44;5035530;28;20508;-38
2021/09/10 10:22:40;;;;;;;5.97;2.33;;;;;;;34.37;22.53;99872.81;5057083;28;20106;-37
2021/09/10 10:25:10;;;;;;;3.65;2.40;;;;;;;34.72;21.75;99874.75;5048504;28;20521;-38
2021/09/10 10:27:46;;;;;;;6.20;2.20;;;;;;;34.10;20.34;99864.28;5062160;28;20048;-38
2021/09/10 10:30:14;;;;;;;2.60;1.80;;;;;;;33.33;20.10;99865.53;5053134;28;20515;-38
2021/09/10 10:32:52;;;;;;;3.30;1.73;;;;;;;33.10;20.00;99865.28;5064165;28;20067;-38
2021/09/10 10:35:40;;;;;;;6.80;2.28;;;;;;;32.29;21.10;99860.63;5048992;28;20036;-38
2021/09/10 10:38:09;;;;;;;4.60;2.00;;;;;;;32.20;20.65;99857.19;5049367;28;20086;-38
2021/09/10 10:40:47;;;;;;;3.53;1.70;;;;;;;30.85;21.80;99860.47;5049736;28;20025;-38
2021/09/10 10:43:22;;;;;;;3.72;1.90;;;;;;;29.73;21.51;99844.38;5045979;28;20474;-38
2021/09/10 10:45:47;;;;;;;2.50;1.85;;;;;;;28.91;23.07;99854.56;5049396;28;20037;-36
2021/09/10 10:48:34;;;;;;;4.97;1.75;;;;;;;29.18;22.76;99845.19;5048313;28;20458;-36
2021/09/10 10:51:04;;;;;;;3.40;1.98;;;;;;;29.96;21.23;99844.91;5045332;28;20028;-36
2021/09/10 10:53:44;;;;;;;3.88;1.90;;;;;;;31.02;21.84;99843.03;5047094;28;20094;-37
2021/09/10 10:56:22;;;;;;;3.53;1.73;;;;;;;31.44;19.14;99845.66;5051812;28;20384;-38
2021/09/10 10:59:24;;;;;;;7.30;1.80;;;;;;;30.70;20.68;99852.84;5053161;28;20376;-38
2021/09/10 11:02:36;;;;;;;2.75;2.00;;;;;;;30.20;21.58;99854.47;5052555;28;20045;-42
2021/09/10 11:05:17;;;;;;;1.90;1.40;;;;;;;30.25;20.15;99850.72;5046106;28;20032;-37
2021/09/10 11:07:44;;;;;;;2.20;1.40;;;;;;;29.42;19.82;99848.19;5054890;28;20111;-38
2021/09/10 11:10:15;;;;;;;3.53;1.48;;;;;;;30.39;20.20;99843.88;5064776;28;20135;-37
2021/09/10 11:12:41;;;;;;;4.18;1.80;;;;;;;30.80;20.16;99846.94;5032955;28;20477;-38
2021/09/10 11:15:20;;;;;;;3.05;1.50;;;;;;;31.24;19.64;99836.34;5048816;28;20519;-38
2021/09/10 11:18:06;;;;;;;2.90;1.50;;;;;;;31.74;19.56;99840.00;5060608;28;20028;-38
2021/09/10 11:20:40;;;;;;;4.97;2.03;;;;;;;31.79;20.18;99826.00;5036038;28;20024;-38
2021/09/10 11:23:11;;;;;;;3.15;1.90;;;;;;;30.15;20.92;99840.94;5057409;28;20021;-37
2021/09/10 11:25:50;;;;;;;4.07;1.63;;;;;;;30.86;21.20;99833.78;5047211;28;20032;-38
2021/09/10 11:28:16;;;;;;;3.38;1.73;;;;;;;31.49;20.18;99826.22;5064505;28;20237;-38
2021/09/10 11:30:42;;;;;;;5.53;2.30;;;;;;;32.26;19.73;99827.47;5053454;28;20052;-39